sensor_id;sensor_type;location;lat;lon;timestamp;temperature;humidity
22645;DHT22;11489;50.834;6.752;2022-08-30T00:00:39;18.50;52.10
22645;DHT22;11489;50.834;6.752;2022-08-30T00:03:24;18.40;52.20
22645;DHT22;11489;50.834;6.752;2022-08-30T00:05:52;18.40;52.30
22645;DHT22;11489;50.834;6.752;2022-08-30T00:08:18;18.30;52.40
22645;DHT22;11489;50.834;6.752;2022-08-30T00:10:44;18.30;52.50
22645;DHT22;11489;50.834;6.752;2022-08-30T00:13:11;18.20;52.50
22645;DHT22;11489;50.834;6.752;2022-08-30T00:15:39;18.20;52.60
22645;DHT22;11489;50.834;6.752;2022-08-30T00:18:05;18.20;52.70
22645;DHT22;11489;50.834;6.752;2022-08-30T00:20:32;18.20;52.70
22645;DHT22;11489;50.834;6.752;2022-08-30T00:22:58;18.10;52.70
22645;DHT22;11489;50.834;6.752;2022-08-30T00:25:24;18.10;52.80
22645;DHT22;11489;50.834;6.752;2022-08-30T00:27:50;18.10;52.90
22645;DHT22;11489;50.834;6.752;2022-08-30T00:30:17;18.00;52.90
22645;DHT22;11489;50.834;6.752;2022-08-30T00:32:44;18.00;53.00
22645;DHT22;11489;50.834;6.752;2022-08-30T00:35:11;17.90;53.10
22645;DHT22;11489;50.834;6.752;2022-08-30T00:37:37;17.90;53.20
22645;DHT22;11489;50.834;6.752;2022-08-30T00:40:04;17.80;53.20
22645;DHT22;11489;50.834;6.752;2022-08-30T00:42:31;17.70;53.30
22645;DHT22;11489;50.834;6.752;2022-08-30T00:44:58;17.70;53.40
22645;DHT22;11489;50.834;6.752;2022-08-30T00:47:24;17.60;53.50
22645;DHT22;11489;50.834;6.752;2022-08-30T00:49:53;17.50;53.60
22645;DHT22;11489;50.834;6.752;2022-08-30T00:52:21;17.40;53.90
22645;DHT22;11489;50.834;6.752;2022-08-30T00:54:48;17.30;53.90
22645;DHT22;11489;50.834;6.752;2022-08-30T00:57:15;17.20;54.00
22645;DHT22;11489;50.834;6.752;2022-08-30T00:59:43;17.20;54.20
22645;DHT22;11489;50.834;6.752;2022-08-30T01:02:11;17.10;54.50
22645;DHT22;11489;50.834;6.752;2022-08-30T01:04:39;17.00;54.50
22645;DHT22;11489;50.834;6.752;2022-08-30T01:07:06;16.90;54.70
22645;DHT22;11489;50.834;6.752;2022-08-30T01:09:33;16.80;54.80
22645;DHT22;11489;50.834;6.752;2022-08-30T01:12:00;16.70;54.90
22645;DHT22;11489;50.834;6.752;2022-08-30T01:14:26;16.60;55.10
22645;DHT22;11489;50.834;6.752;2022-08-30T01:16:54;16.50;55.30
22645;DHT22;11489;50.834;6.752;2022-08-30T01:19:41;16.50;55.50
22645;DHT22;11489;50.834;6.752;2022-08-30T01:24:43;16.40;56.00
22645;DHT22;11489;50.834;6.752;2022-08-30T01:27:12;16.30;56.10
22645;DHT22;11489;50.834;6.752;2022-08-30T01:29:38;16.30;56.40
22645;DHT22;11489;50.834;6.752;2022-08-30T01:32:05;16.30;56.50
22645;DHT22;11489;50.834;6.752;2022-08-30T01:34:31;16.30;56.70
22645;DHT22;11489;50.834;6.752;2022-08-30T01:36:56;16.30;56.80
22645;DHT22;11489;50.834;6.752;2022-08-30T01:39:22;16.30;56.80
22645;DHT22;11489;50.834;6.752;2022-08-30T01:41:48;16.30;56.90
22645;DHT22;11489;50.834;6.752;2022-08-30T01:44:13;16.20;56.90
22645;DHT22;11489;50.834;6.752;2022-08-30T01:46:43;16.20;57.00
22645;DHT22;11489;50.834;6.752;2022-08-30T01:49:13;16.20;57.10
22645;DHT22;11489;50.834;6.752;2022-08-30T01:51:40;16.10;57.10
22645;DHT22;11489;50.834;6.752;2022-08-30T01:54:06;16.10;57.10
22645;DHT22;11489;50.834;6.752;2022-08-30T01:56:32;16.10;57.30
22645;DHT22;11489;50.834;6.752;2022-08-30T01:58:58;16.10;57.50
22645;DHT22;11489;50.834;6.752;2022-08-30T02:01:26;16.10;57.60
22645;DHT22;11489;50.834;6.752;2022-08-30T02:03:54;16.10;57.80
22645;DHT22;11489;50.834;6.752;2022-08-30T02:06:20;16.10;57.90
22645;DHT22;11489;50.834;6.752;2022-08-30T02:08:48;16.10;58.00
22645;DHT22;11489;50.834;6.752;2022-08-30T02:11:14;16.10;58.00
22645;DHT22;11489;50.834;6.752;2022-08-30T02:13:41;16.10;58.00
22645;DHT22;11489;50.834;6.752;2022-08-30T02:16:13;16.10;58.00
22645;DHT22;11489;50.834;6.752;2022-08-30T02:18:40;16.10;58.10
22645;DHT22;11489;50.834;6.752;2022-08-30T02:21:07;16.00;57.80
22645;DHT22;11489;50.834;6.752;2022-08-30T02:23:34;16.00;57.70
22645;DHT22;11489;50.834;6.752;2022-08-30T02:26:00;16.00;57.70
22645;DHT22;11489;50.834;6.752;2022-08-30T02:28:26;15.90;57.60
22645;DHT22;11489;50.834;6.752;2022-08-30T02:30:52;15.90;57.60
22645;DHT22;11489;50.834;6.752;2022-08-30T02:33:18;15.90;58.30
22645;DHT22;11489;50.834;6.752;2022-08-30T02:35:44;15.90;57.80
22645;DHT22;11489;50.834;6.752;2022-08-30T02:38:10;15.90;57.80
22645;DHT22;11489;50.834;6.752;2022-08-30T02:40:36;15.80;57.80
22645;DHT22;11489;50.834;6.752;2022-08-30T02:43:02;15.80;57.90
22645;DHT22;11489;50.834;6.752;2022-08-30T02:45:28;15.80;57.90
22645;DHT22;11489;50.834;6.752;2022-08-30T02:47:54;15.70;58.00
22645;DHT22;11489;50.834;6.752;2022-08-30T02:50:21;15.70;58.10
22645;DHT22;11489;50.834;6.752;2022-08-30T02:52:47;15.70;58.10
22645;DHT22;11489;50.834;6.752;2022-08-30T02:55:13;15.60;58.20
22645;DHT22;11489;50.834;6.752;2022-08-30T02:57:38;15.60;58.20
22645;DHT22;11489;50.834;6.752;2022-08-30T03:00:06;15.60;58.30
22645;DHT22;11489;50.834;6.752;2022-08-30T03:02:33;15.50;58.50
22645;DHT22;11489;50.834;6.752;2022-08-30T03:04:58;15.50;58.50
22645;DHT22;11489;50.834;6.752;2022-08-30T03:07:24;15.50;58.60
22645;DHT22;11489;50.834;6.752;2022-08-30T03:09:50;15.40;58.60
22645;DHT22;11489;50.834;6.752;2022-08-30T03:12:15;15.40;58.60
22645;DHT22;11489;50.834;6.752;2022-08-30T03:14:41;15.40;58.60
22645;DHT22;11489;50.834;6.752;2022-08-30T03:17:08;15.30;58.60
22645;DHT22;11489;50.834;6.752;2022-08-30T03:19:34;15.30;58.70
22645;DHT22;11489;50.834;6.752;2022-08-30T03:22:02;15.30;58.80
22645;DHT22;11489;50.834;6.752;2022-08-30T03:24:28;15.20;58.90
22645;DHT22;11489;50.834;6.752;2022-08-30T03:26:53;15.20;58.90
22645;DHT22;11489;50.834;6.752;2022-08-30T03:29:19;15.20;59.00
22645;DHT22;11489;50.834;6.752;2022-08-30T03:31:45;15.20;59.10
22645;DHT22;11489;50.834;6.752;2022-08-30T03:34:11;15.10;59.20
22645;DHT22;11489;50.834;6.752;2022-08-30T03:36:37;15.10;59.30
22645;DHT22;11489;50.834;6.752;2022-08-30T03:39:07;15.10;59.40
22645;DHT22;11489;50.834;6.752;2022-08-30T03:41:34;15.10;59.60
22645;DHT22;11489;50.834;6.752;2022-08-30T03:44:00;15.00;59.40
22645;DHT22;11489;50.834;6.752;2022-08-30T03:46:27;15.00;59.50
22645;DHT22;11489;50.834;6.752;2022-08-30T03:48:52;15.00;59.50
22645;DHT22;11489;50.834;6.752;2022-08-30T03:51:21;15.00;59.50
22645;DHT22;11489;50.834;6.752;2022-08-30T03:53:48;14.90;59.50
22645;DHT22;11489;50.834;6.752;2022-08-30T03:56:14;14.90;59.50
22645;DHT22;11489;50.834;6.752;2022-08-30T03:58:40;14.90;59.50
22645;DHT22;11489;50.834;6.752;2022-08-30T04:01:06;14.90;59.60
22645;DHT22;11489;50.834;6.752;2022-08-30T04:03:32;14.80;59.50
22645;DHT22;11489;50.834;6.752;2022-08-30T04:05:58;14.80;59.60
22645;DHT22;11489;50.834;6.752;2022-08-30T04:08:25;14.70;59.60
22645;DHT22;11489;50.834;6.752;2022-08-30T04:10:52;14.70;59.70
22645;DHT22;11489;50.834;6.752;2022-08-30T04:13:19;14.60;59.80
22645;DHT22;11489;50.834;6.752;2022-08-30T04:15:45;14.60;59.90
22645;DHT22;11489;50.834;6.752;2022-08-30T04:18:11;14.60;59.90
22645;DHT22;11489;50.834;6.752;2022-08-30T04:20:37;14.60;60.00
22645;DHT22;11489;50.834;6.752;2022-08-30T04:23:04;14.60;60.20
22645;DHT22;11489;50.834;6.752;2022-08-30T04:25:33;14.50;60.30
22645;DHT22;11489;50.834;6.752;2022-08-30T04:27:59;14.50;60.30
22645;DHT22;11489;50.834;6.752;2022-08-30T04:30:25;14.50;60.30
22645;DHT22;11489;50.834;6.752;2022-08-30T04:32:51;14.50;60.30
22645;DHT22;11489;50.834;6.752;2022-08-30T04:35:16;14.40;60.30
22645;DHT22;11489;50.834;6.752;2022-08-30T04:37:42;14.40;60.40
22645;DHT22;11489;50.834;6.752;2022-08-30T04:40:09;14.40;60.60
22645;DHT22;11489;50.834;6.752;2022-08-30T04:42:35;14.40;60.70
22645;DHT22;11489;50.834;6.752;2022-08-30T04:45:03;14.40;60.90
22645;DHT22;11489;50.834;6.752;2022-08-30T04:47:32;14.40;61.00
22645;DHT22;11489;50.834;6.752;2022-08-30T04:50:02;14.40;61.00
22645;DHT22;11489;50.834;6.752;2022-08-30T04:52:29;14.40;61.10
22645;DHT22;11489;50.834;6.752;2022-08-30T04:54:55;14.40;61.10
22645;DHT22;11489;50.834;6.752;2022-08-30T04:57:22;14.40;61.10
22645;DHT22;11489;50.834;6.752;2022-08-30T04:59:48;14.50;61.20
22645;DHT22;11489;50.834;6.752;2022-08-30T05:02:14;14.50;61.20
22645;DHT22;11489;50.834;6.752;2022-08-30T05:04:39;14.50;61.30
22645;DHT22;11489;50.834;6.752;2022-08-30T05:07:29;14.50;61.20
22645;DHT22;11489;50.834;6.752;2022-08-30T05:09:55;14.60;61.20
22645;DHT22;11489;50.834;6.752;2022-08-30T05:12:21;14.60;61.20
22645;DHT22;11489;50.834;6.752;2022-08-30T05:14:47;14.60;61.20
22645;DHT22;11489;50.834;6.752;2022-08-30T05:17:12;14.60;61.20
22645;DHT22;11489;50.834;6.752;2022-08-30T05:19:38;14.60;61.30
22645;DHT22;11489;50.834;6.752;2022-08-30T05:22:04;14.60;61.30
22645;DHT22;11489;50.834;6.752;2022-08-30T05:24:29;14.70;61.30
22645;DHT22;11489;50.834;6.752;2022-08-30T05:26:57;14.70;61.40
22645;DHT22;11489;50.834;6.752;2022-08-30T05:29:23;14.70;61.40
22645;DHT22;11489;50.834;6.752;2022-08-30T05:31:49;14.70;61.40
22645;DHT22;11489;50.834;6.752;2022-08-30T05:34:15;14.70;61.50
22645;DHT22;11489;50.834;6.752;2022-08-30T05:36:41;14.80;61.70
22645;DHT22;11489;50.834;6.752;2022-08-30T05:39:08;14.90;61.80
22645;DHT22;11489;50.834;6.752;2022-08-30T05:41:35;14.90;62.00
22645;DHT22;11489;50.834;6.752;2022-08-30T05:44:02;15.00;61.80
22645;DHT22;11489;50.834;6.752;2022-08-30T05:46:29;15.10;61.80
22645;DHT22;11489;50.834;6.752;2022-08-30T05:48:58;15.20;61.80
22645;DHT22;11489;50.834;6.752;2022-08-30T05:51:27;15.30;61.60
22645;DHT22;11489;50.834;6.752;2022-08-30T05:53:55;15.40;61.50
22645;DHT22;11489;50.834;6.752;2022-08-30T05:56:27;15.50;61.30
22645;DHT22;11489;50.834;6.752;2022-08-30T05:58:54;15.50;61.20
22645;DHT22;11489;50.834;6.752;2022-08-30T06:03:47;15.70;60.80
22645;DHT22;11489;50.834;6.752;2022-08-30T06:06:12;15.70;60.60
22645;DHT22;11489;50.834;6.752;2022-08-30T06:08:38;15.80;60.60
22645;DHT22;11489;50.834;6.752;2022-08-30T06:11:04;15.80;60.50
22645;DHT22;11489;50.834;6.752;2022-08-30T06:13:29;15.80;60.50
22645;DHT22;11489;50.834;6.752;2022-08-30T06:15:56;15.80;60.40
22645;DHT22;11489;50.834;6.752;2022-08-30T06:18:22;15.80;60.40
22645;DHT22;11489;50.834;6.752;2022-08-30T06:20:47;15.90;60.50
22645;DHT22;11489;50.834;6.752;2022-08-30T06:23:16;15.90;60.50
22645;DHT22;11489;50.834;6.752;2022-08-30T06:25:43;15.90;60.50
22645;DHT22;11489;50.834;6.752;2022-08-30T06:28:09;16.00;60.60
22645;DHT22;11489;50.834;6.752;2022-08-30T06:30:38;16.00;60.70
22645;DHT22;11489;50.834;6.752;2022-08-30T06:33:03;16.10;60.90
22645;DHT22;11489;50.834;6.752;2022-08-30T06:35:29;16.20;60.90
22645;DHT22;11489;50.834;6.752;2022-08-30T06:37:55;16.30;60.90
22645;DHT22;11489;50.834;6.752;2022-08-30T06:40:21;16.40;60.80
22645;DHT22;11489;50.834;6.752;2022-08-30T06:42:48;16.50;60.70
22645;DHT22;11489;50.834;6.752;2022-08-30T06:45:14;16.70;60.70
22645;DHT22;11489;50.834;6.752;2022-08-30T06:47:41;16.80;60.60
22645;DHT22;11489;50.834;6.752;2022-08-30T06:50:07;16.90;60.50
22645;DHT22;11489;50.834;6.752;2022-08-30T06:52:33;17.00;60.30
22645;DHT22;11489;50.834;6.752;2022-08-30T06:54:59;17.20;60.10
22645;DHT22;11489;50.834;6.752;2022-08-30T06:57:25;17.30;60.00
22645;DHT22;11489;50.834;6.752;2022-08-30T06:59:57;17.40;59.80
22645;DHT22;11489;50.834;6.752;2022-08-30T07:02:24;17.60;59.70
22645;DHT22;11489;50.834;6.752;2022-08-30T07:04:50;17.70;59.60
22645;DHT22;11489;50.834;6.752;2022-08-30T07:07:15;17.80;59.60
22645;DHT22;11489;50.834;6.752;2022-08-30T07:09:41;18.00;59.60
22645;DHT22;11489;50.834;6.752;2022-08-30T07:12:12;18.10;59.60
22645;DHT22;11489;50.834;6.752;2022-08-30T07:14:39;18.30;59.40
22645;DHT22;11489;50.834;6.752;2022-08-30T07:17:05;18.50;59.30
22645;DHT22;11489;50.834;6.752;2022-08-30T07:19:51;18.70;59.10
22645;DHT22;11489;50.834;6.752;2022-08-30T07:22:16;18.90;58.70
22645;DHT22;11489;50.834;6.752;2022-08-30T07:24:42;19.10;58.50
22645;DHT22;11489;50.834;6.752;2022-08-30T07:27:08;19.20;58.20
22645;DHT22;11489;50.834;6.752;2022-08-30T07:29:34;19.30;58.00
22645;DHT22;11489;50.834;6.752;2022-08-30T07:31:59;19.40;57.90
22645;DHT22;11489;50.834;6.752;2022-08-30T07:34:25;19.60;57.90
22645;DHT22;11489;50.834;6.752;2022-08-30T07:36:51;19.70;57.70
22645;DHT22;11489;50.834;6.752;2022-08-30T07:39:18;19.80;57.70
22645;DHT22;11489;50.834;6.752;2022-08-30T07:41:44;20.00;57.70
22645;DHT22;11489;50.834;6.752;2022-08-30T07:44:10;20.10;57.70
22645;DHT22;11489;50.834;6.752;2022-08-30T07:46:37;20.30;57.70
22645;DHT22;11489;50.834;6.752;2022-08-30T07:49:04;20.40;57.50
22645;DHT22;11489;50.834;6.752;2022-08-30T07:51:30;20.60;57.40
22645;DHT22;11489;50.834;6.752;2022-08-30T07:53:56;20.80;57.30
22645;DHT22;11489;50.834;6.752;2022-08-30T07:56:23;21.00;57.10
22645;DHT22;11489;50.834;6.752;2022-08-30T07:58:49;21.20;56.90
22645;DHT22;11489;50.834;6.752;2022-08-30T08:01:15;21.40;56.70
22645;DHT22;11489;50.834;6.752;2022-08-30T08:03:42;21.50;56.50
22645;DHT22;11489;50.834;6.752;2022-08-30T08:06:10;21.70;56.30
22645;DHT22;11489;50.834;6.752;2022-08-30T08:08:37;21.80;56.10
22645;DHT22;11489;50.834;6.752;2022-08-30T08:11:13;22.00;55.90
22645;DHT22;11489;50.834;6.752;2022-08-30T08:13:40;22.20;55.30
22645;DHT22;11489;50.834;6.752;2022-08-30T08:16:07;22.30;55.40
22645;DHT22;11489;50.834;6.752;2022-08-30T08:18:32;22.50;55.30
22645;DHT22;11489;50.834;6.752;2022-08-30T08:21:00;22.60;55.10
22645;DHT22;11489;50.834;6.752;2022-08-30T08:23:26;22.70;54.90
22645;DHT22;11489;50.834;6.752;2022-08-30T08:25:52;22.80;54.70
22645;DHT22;11489;50.834;6.752;2022-08-30T08:28:18;23.00;54.40
22645;DHT22;11489;50.834;6.752;2022-08-30T08:30:44;23.10;54.20
22645;DHT22;11489;50.834;6.752;2022-08-30T08:35:40;23.20;53.60
22645;DHT22;11489;50.834;6.752;2022-08-30T08:38:06;23.30;53.60
22645;DHT22;11489;50.834;6.752;2022-08-30T08:43:12;23.50;53.10
22645;DHT22;11489;50.834;6.752;2022-08-30T08:45:41;23.60;53.40
22645;DHT22;11489;50.834;6.752;2022-08-30T08:48:22;23.80;53.30
22645;DHT22;11489;50.834;6.752;2022-08-30T08:50:51;23.90;52.60
22645;DHT22;11489;50.834;6.752;2022-08-30T08:53:36;24.10;53.20
22645;DHT22;11489;50.834;6.752;2022-08-30T08:56:12;24.30;53.00
22645;DHT22;11489;50.834;6.752;2022-08-30T08:58:43;24.60;52.30
22645;DHT22;11489;50.834;6.752;2022-08-30T09:01:11;24.80;52.40
22645;DHT22;11489;50.834;6.752;2022-08-30T09:03:37;25.00;52.10
22645;DHT22;11489;50.834;6.752;2022-08-30T09:06:14;25.10;51.60
22645;DHT22;11489;50.834;6.752;2022-08-30T09:08:44;25.30;51.00
22645;DHT22;11489;50.834;6.752;2022-08-30T09:11:18;25.30;50.90
22645;DHT22;11489;50.834;6.752;2022-08-30T09:13:45;25.30;50.50
22645;DHT22;11489;50.834;6.752;2022-08-30T09:16:47;25.50;51.00
22645;DHT22;11489;50.834;6.752;2022-08-30T09:21:57;25.90;50.00
22645;DHT22;11489;50.834;6.752;2022-08-30T09:24:23;26.10;50.80
22645;DHT22;11489;50.834;6.752;2022-08-30T09:26:49;26.40;50.60
22645;DHT22;11489;50.834;6.752;2022-08-30T09:29:16;26.70;50.30
22645;DHT22;11489;50.834;6.752;2022-08-30T09:31:50;27.00;49.90
22645;DHT22;11489;50.834;6.752;2022-08-30T09:34:21;27.40;48.50
22645;DHT22;11489;50.834;6.752;2022-08-30T09:36:52;27.60;48.40
22645;DHT22;11489;50.834;6.752;2022-08-30T09:39:28;27.80;47.80
22645;DHT22;11489;50.834;6.752;2022-08-30T09:42:22;28.00;47.70
22645;DHT22;11489;50.834;6.752;2022-08-30T09:44:50;28.20;45.70
22645;DHT22;11489;50.834;6.752;2022-08-30T09:47:19;28.30;46.60
22645;DHT22;11489;50.834;6.752;2022-08-30T09:49:45;28.40;46.20
22645;DHT22;11489;50.834;6.752;2022-08-30T10:00:21;29.30;44.50
22645;DHT22;11489;50.834;6.752;2022-08-30T10:05:50;29.80;43.70
22645;DHT22;11489;50.834;6.752;2022-08-30T10:11:17;30.10;42.60
22645;DHT22;11489;50.834;6.752;2022-08-30T10:22:11;30.50;40.20
22645;DHT22;11489;50.834;6.752;2022-08-30T10:24:48;30.50;40.90
22645;DHT22;11489;50.834;6.752;2022-08-30T10:27:25;30.60;39.90
22645;DHT22;11489;50.834;6.752;2022-08-30T10:30:04;30.60;39.60
22645;DHT22;11489;50.834;6.752;2022-08-30T10:32:44;30.60;39.30
22645;DHT22;11489;50.834;6.752;2022-08-30T10:35:23;30.70;39.00
22645;DHT22;11489;50.834;6.752;2022-08-30T10:41:19;30.70;38.50
22645;DHT22;11489;50.834;6.752;2022-08-30T10:46:52;30.90;38.40
22645;DHT22;11489;50.834;6.752;2022-08-30T10:49:21;31.00;38.50
22645;DHT22;11489;50.834;6.752;2022-08-30T10:52:07;31.00;38.00
22645;DHT22;11489;50.834;6.752;2022-08-30T10:54:47;30.90;37.10
22645;DHT22;11489;50.834;6.752;2022-08-30T10:57:15;30.90;37.00
22645;DHT22;11489;50.834;6.752;2022-08-30T10:59:48;30.90;37.50
22645;DHT22;11489;50.834;6.752;2022-08-30T11:08:17;30.90;35.90
22645;DHT22;11489;50.834;6.752;2022-08-30T11:13:20;31.10;36.80
22645;DHT22;11489;50.834;6.752;2022-08-30T11:18:28;31.20;35.90
22645;DHT22;11489;50.834;6.752;2022-08-30T11:24:20;31.20;35.00
22645;DHT22;11489;50.834;6.752;2022-08-30T11:29:40;30.80;35.30
22645;DHT22;11489;50.834;6.752;2022-08-30T11:42:37;30.50;36.20
22645;DHT22;11489;50.834;6.752;2022-08-30T11:47:50;30.50;36.10
22645;DHT22;11489;50.834;6.752;2022-08-30T11:53:08;30.30;35.10
22645;DHT22;11489;50.834;6.752;2022-08-30T11:59:06;29.90;35.20
22645;DHT22;11489;50.834;6.752;2022-08-30T12:01:37;29.80;35.50
22645;DHT22;11489;50.834;6.752;2022-08-30T12:20:30;30.50;35.20
22645;DHT22;11489;50.834;6.752;2022-08-30T12:23:26;30.60;35.40
22645;DHT22;11489;50.834;6.752;2022-08-30T12:26:14;30.70;34.90
22645;DHT22;11489;50.834;6.752;2022-08-30T12:28:41;30.70;34.40
22645;DHT22;11489;50.834;6.752;2022-08-30T12:31:20;30.70;34.90
22645;DHT22;11489;50.834;6.752;2022-08-30T12:33:52;30.60;34.80
22645;DHT22;11489;50.834;6.752;2022-08-30T12:36:38;30.60;35.00
22645;DHT22;11489;50.834;6.752;2022-08-30T12:39:08;30.60;34.50
22645;DHT22;11489;50.834;6.752;2022-08-30T12:41:34;30.60;34.90
22645;DHT22;11489;50.834;6.752;2022-08-30T12:44:00;30.60;34.80
22645;DHT22;11489;50.834;6.752;2022-08-30T12:46:27;30.50;34.60
22645;DHT22;11489;50.834;6.752;2022-08-30T12:48:53;30.50;34.20
22645;DHT22;11489;50.834;6.752;2022-08-30T12:51:35;30.50;34.50
22645;DHT22;11489;50.834;6.752;2022-08-30T12:56:58;30.50;34.30
22645;DHT22;11489;50.834;6.752;2022-08-30T12:59:38;30.50;34.40
22645;DHT22;11489;50.834;6.752;2022-08-30T13:02:25;30.60;34.00
22645;DHT22;11489;50.834;6.752;2022-08-30T13:04:52;30.70;34.10
22645;DHT22;11489;50.834;6.752;2022-08-30T13:07:45;30.80;34.30
22645;DHT22;11489;50.834;6.752;2022-08-30T13:10:16;30.90;33.70
22645;DHT22;11489;50.834;6.752;2022-08-30T13:13:02;30.80;33.50
22645;DHT22;11489;50.834;6.752;2022-08-30T13:15:31;30.80;33.80
22645;DHT22;11489;50.834;6.752;2022-08-30T13:20:44;30.80;34.50
22645;DHT22;11489;50.834;6.752;2022-08-30T13:23:20;30.80;33.80
22645;DHT22;11489;50.834;6.752;2022-08-30T13:25:46;30.70;33.40
22645;DHT22;11489;50.834;6.752;2022-08-30T13:28:12;30.80;33.90
22645;DHT22;11489;50.834;6.752;2022-08-30T13:30:38;30.90;34.10
22645;DHT22;11489;50.834;6.752;2022-08-30T13:33:03;30.90;33.60
22645;DHT22;11489;50.834;6.752;2022-08-30T13:35:29;31.00;33.60
22645;DHT22;11489;50.834;6.752;2022-08-30T13:37:56;31.10;33.20
22645;DHT22;11489;50.834;6.752;2022-08-30T13:40:24;31.10;33.70
22645;DHT22;11489;50.834;6.752;2022-08-30T13:42:50;31.00;33.00
22645;DHT22;11489;50.834;6.752;2022-08-30T13:45:17;31.00;32.60
22645;DHT22;11489;50.834;6.752;2022-08-30T13:47:44;30.90;32.40
22645;DHT22;11489;50.834;6.752;2022-08-30T13:50:11;30.70;32.60
22645;DHT22;11489;50.834;6.752;2022-08-30T13:52:37;30.60;32.90
22645;DHT22;11489;50.834;6.752;2022-08-30T13:55:03;30.50;33.10
22645;DHT22;11489;50.834;6.752;2022-08-30T13:57:30;30.50;33.10
22645;DHT22;11489;50.834;6.752;2022-08-30T13:59:56;30.50;33.10
22645;DHT22;11489;50.834;6.752;2022-08-30T14:02:21;30.40;33.40
22645;DHT22;11489;50.834;6.752;2022-08-30T14:04:47;30.40;33.50
22645;DHT22;11489;50.834;6.752;2022-08-30T14:07:13;30.40;33.40
22645;DHT22;11489;50.834;6.752;2022-08-30T14:09:39;30.30;33.50
22645;DHT22;11489;50.834;6.752;2022-08-30T14:12:04;30.30;33.40
22645;DHT22;11489;50.834;6.752;2022-08-30T14:14:30;30.20;33.60
22645;DHT22;11489;50.834;6.752;2022-08-30T14:16:56;30.20;33.90
22645;DHT22;11489;50.834;6.752;2022-08-30T14:19:22;30.20;34.00
22645;DHT22;11489;50.834;6.752;2022-08-30T14:21:47;30.30;33.70
22645;DHT22;11489;50.834;6.752;2022-08-30T14:24:13;30.30;33.60
22645;DHT22;11489;50.834;6.752;2022-08-30T14:26:45;30.30;33.60
22645;DHT22;11489;50.834;6.752;2022-08-30T14:29:16;30.30;34.00
22645;DHT22;11489;50.834;6.752;2022-08-30T14:31:42;30.30;33.60
22645;DHT22;11489;50.834;6.752;2022-08-30T14:34:10;30.30;34.00
22645;DHT22;11489;50.834;6.752;2022-08-30T14:36:38;30.30;34.10
22645;DHT22;11489;50.834;6.752;2022-08-30T14:39:05;30.30;34.30
22645;DHT22;11489;50.834;6.752;2022-08-30T14:41:32;30.30;34.30
22645;DHT22;11489;50.834;6.752;2022-08-30T14:43:58;30.30;34.00
22645;DHT22;11489;50.834;6.752;2022-08-30T14:46:23;30.30;34.10
22645;DHT22;11489;50.834;6.752;2022-08-30T14:48:52;30.20;34.40
22645;DHT22;11489;50.834;6.752;2022-08-30T14:51:20;30.30;34.70
22645;DHT22;11489;50.834;6.752;2022-08-30T14:53:47;30.30;34.80
22645;DHT22;11489;50.834;6.752;2022-08-30T14:56:16;30.30;34.70
22645;DHT22;11489;50.834;6.752;2022-08-30T14:58:43;30.30;34.20
22645;DHT22;11489;50.834;6.752;2022-08-30T15:01:10;30.30;34.00
22645;DHT22;11489;50.834;6.752;2022-08-30T15:03:38;30.40;34.40
22645;DHT22;11489;50.834;6.752;2022-08-30T15:06:05;30.50;34.50
22645;DHT22;11489;50.834;6.752;2022-08-30T15:08:32;30.50;34.60
22645;DHT22;11489;50.834;6.752;2022-08-30T15:10:58;30.60;34.60
22645;DHT22;11489;50.834;6.752;2022-08-30T15:13:25;30.50;34.60
22645;DHT22;11489;50.834;6.752;2022-08-30T15:15:51;30.50;34.50
22645;DHT22;11489;50.834;6.752;2022-08-30T15:18:16;30.50;34.30
22645;DHT22;11489;50.834;6.752;2022-08-30T15:20:47;30.50;34.10
22645;DHT22;11489;50.834;6.752;2022-08-30T15:23:14;30.40;34.10
22645;DHT22;11489;50.834;6.752;2022-08-30T15:25:40;30.40;34.30
22645;DHT22;11489;50.834;6.752;2022-08-30T15:28:06;30.30;34.10
22645;DHT22;11489;50.834;6.752;2022-08-30T15:30:32;30.20;34.20
22645;DHT22;11489;50.834;6.752;2022-08-30T15:32:58;30.10;34.20
22645;DHT22;11489;50.834;6.752;2022-08-30T15:35:23;29.90;34.40
22645;DHT22;11489;50.834;6.752;2022-08-30T15:37:49;29.80;34.50
22645;DHT22;11489;50.834;6.752;2022-08-30T15:40:15;29.60;34.70
22645;DHT22;11489;50.834;6.752;2022-08-30T15:42:40;29.50;34.90
22645;DHT22;11489;50.834;6.752;2022-08-30T15:45:07;29.40;35.00
22645;DHT22;11489;50.834;6.752;2022-08-30T15:47:33;29.30;35.20
22645;DHT22;11489;50.834;6.752;2022-08-30T15:50:01;29.10;35.20
22645;DHT22;11489;50.834;6.752;2022-08-30T15:52:28;29.00;35.40
22645;DHT22;11489;50.834;6.752;2022-08-30T15:54:54;28.90;35.60
22645;DHT22;11489;50.834;6.752;2022-08-30T15:59:48;28.70;36.70
22645;DHT22;11489;50.834;6.752;2022-08-30T16:02:15;28.60;36.20
22645;DHT22;11489;50.834;6.752;2022-08-30T16:04:41;28.50;36.40
22645;DHT22;11489;50.834;6.752;2022-08-30T16:07:07;28.40;36.50
22645;DHT22;11489;50.834;6.752;2022-08-30T16:09:33;28.30;36.70
22645;DHT22;11489;50.834;6.752;2022-08-30T16:12:00;28.30;36.90
22645;DHT22;11489;50.834;6.752;2022-08-30T16:14:26;28.20;37.00
22645;DHT22;11489;50.834;6.752;2022-08-30T16:16:52;28.20;37.20
22645;DHT22;11489;50.834;6.752;2022-08-30T16:19:18;28.20;37.30
22645;DHT22;11489;50.834;6.752;2022-08-30T16:21:44;28.20;37.40
22645;DHT22;11489;50.834;6.752;2022-08-30T16:24:12;28.10;37.30
22645;DHT22;11489;50.834;6.752;2022-08-30T16:26:38;28.10;37.40
22645;DHT22;11489;50.834;6.752;2022-08-30T16:29:05;28.00;37.50
22645;DHT22;11489;50.834;6.752;2022-08-30T16:31:32;28.00;37.60
22645;DHT22;11489;50.834;6.752;2022-08-30T16:33:59;28.00;37.60
22645;DHT22;11489;50.834;6.752;2022-08-30T16:36:25;28.00;37.70
22645;DHT22;11489;50.834;6.752;2022-08-30T16:38:52;27.90;37.70
22645;DHT22;11489;50.834;6.752;2022-08-30T16:41:18;27.80;37.70
22645;DHT22;11489;50.834;6.752;2022-08-30T16:43:44;27.80;37.80
22645;DHT22;11489;50.834;6.752;2022-08-30T16:46:14;27.80;37.90
22645;DHT22;11489;50.834;6.752;2022-08-30T16:48:41;27.70;37.90
22645;DHT22;11489;50.834;6.752;2022-08-30T16:51:10;27.60;37.90
22645;DHT22;11489;50.834;6.752;2022-08-30T16:53:36;27.50;38.00
22645;DHT22;11489;50.834;6.752;2022-08-30T16:56:10;27.40;38.10
22645;DHT22;11489;50.834;6.752;2022-08-30T16:58:37;27.30;38.30
22645;DHT22;11489;50.834;6.752;2022-08-30T17:01:03;27.20;38.30
22645;DHT22;11489;50.834;6.752;2022-08-30T17:03:29;27.10;38.40
22645;DHT22;11489;50.834;6.752;2022-08-30T17:05:55;27.00;38.50
22645;DHT22;11489;50.834;6.752;2022-08-30T17:08:21;26.90;38.70
22645;DHT22;11489;50.834;6.752;2022-08-30T17:10:46;26.80;38.80
22645;DHT22;11489;50.834;6.752;2022-08-30T17:13:12;26.70;38.90
22645;DHT22;11489;50.834;6.752;2022-08-30T17:15:38;26.60;39.00
22645;DHT22;11489;50.834;6.752;2022-08-30T17:18:04;26.60;39.20